sensor_id;sensor_type;location;lat;lon;timestamp;P1;durP1;ratioP1;P2;durP2;ratioP2
39524;SDS011;25203;50.754;6.978;2022-08-20T00:01:03;3.88;;;1.80;;
39524;SDS011;25203;50.754;6.978;2022-08-20T00:03:06;2.22;;;1.70;;
39524;SDS011;25203;50.754;6.978;2022-08-20T00:05:09;4.65;;;3.30;;
39524;SDS011;25203;50.754;6.978;2022-08-20T00:07:10;2.28;;;2.08;;
39524;SDS011;25203;50.754;6.978;2022-08-20T00:09:12;6.85;;;2.67;;
39524;SDS011;25203;50.754;6.978;2022-08-20T00:11:14;3.30;;;3.00;;
39524;SDS011;25203;50.754;6.978;2022-08-20T00:13:23;4.47;;;2.78;;
39524;SDS011;25203;50.754;6.978;2022-08-20T00:15:31;5.10;;;3.08;;
39524;SDS011;25203;50.754;6.978;2022-08-20T00:17:33;4.40;;;3.15;;
39524;SDS011;25203;50.754;6.978;2022-08-20T00:19:37;4.00;;;3.38;;
39524;SDS011;25203;50.754;6.978;2022-08-20T00:21:37;4.53;;;3.38;;
39524;SDS011;25203;50.754;6.978;2022-08-20T00:23:39;4.07;;;3.65;;
39524;SDS011;25203;50.754;6.978;2022-08-20T00:25:42;4.55;;;2.95;;
39524;SDS011;25203;50.754;6.978;2022-08-20T00:27:43;4.43;;;3.88;;
39524;SDS011;25203;50.754;6.978;2022-08-20T00:29:44;6.65;;;3.75;;
39524;SDS011;25203;50.754;6.978;2022-08-20T00:31:45;5.07;;;4.15;;
39524;SDS011;25203;50.754;6.978;2022-08-20T00:33:45;4.75;;;4.00;;
39524;SDS011;25203;50.754;6.978;2022-08-20T00:35:48;5.10;;;4.60;;
39524;SDS011;25203;50.754;6.978;2022-08-20T00:37:51;4.78;;;4.25;;
39524;SDS011;25203;50.754;6.978;2022-08-20T00:39:52;5.95;;;5.13;;
39524;SDS011;25203;50.754;6.978;2022-08-20T00:41:53;6.70;;;6.10;;
39524;SDS011;25203;50.754;6.978;2022-08-20T00:46:20;7.28;;;5.90;;
39524;SDS011;25203;50.754;6.978;2022-08-20T00:48:25;5.95;;;5.35;;
39524;SDS011;25203;50.754;6.978;2022-08-20T00:50:29;7.43;;;5.88;;
39524;SDS011;25203;50.754;6.978;2022-08-20T00:52:35;6.63;;;5.75;;
39524;SDS011;25203;50.754;6.978;2022-08-20T00:54:49;6.72;;;5.22;;
39524;SDS011;25203;50.754;6.978;2022-08-20T00:58:56;5.60;;;5.00;;
39524;SDS011;25203;50.754;6.978;2022-08-20T01:00:58;6.22;;;4.53;;
39524;SDS011;25203;50.754;6.978;2022-08-20T01:02:59;4.53;;;3.60;;
39524;SDS011;25203;50.754;6.978;2022-08-20T01:05:00;4.35;;;3.50;;
39524;SDS011;25203;50.754;6.978;2022-08-20T01:07:02;4.30;;;3.08;;
39524;SDS011;25203;50.754;6.978;2022-08-20T01:09:05;3.22;;;2.85;;
39524;SDS011;25203;50.754;6.978;2022-08-20T01:11:07;3.80;;;3.25;;
39524;SDS011;25203;50.754;6.978;2022-08-20T01:13:13;3.85;;;2.83;;
39524;SDS011;25203;50.754;6.978;2022-08-20T01:15:18;3.28;;;2.70;;
39524;SDS011;25203;50.754;6.978;2022-08-20T01:17:23;5.90;;;3.17;;
39524;SDS011;25203;50.754;6.978;2022-08-20T01:19:30;4.30;;;2.85;;
39524;SDS011;25203;50.754;6.978;2022-08-20T01:21:35;3.58;;;3.28;;
39524;SDS011;25203;50.754;6.978;2022-08-20T01:28:18;4.35;;;3.05;;
39524;SDS011;25203;50.754;6.978;2022-08-20T01:30:23;4.60;;;2.97;;
39524;SDS011;25203;50.754;6.978;2022-08-20T01:32:26;3.78;;;3.00;;
39524;SDS011;25203;50.754;6.978;2022-08-20T01:34:27;4.60;;;3.00;;
39524;SDS011;25203;50.754;6.978;2022-08-20T01:36:30;4.07;;;2.97;;
39524;SDS011;25203;50.754;6.978;2022-08-20T01:38:38;4.90;;;3.47;;
39524;SDS011;25203;50.754;6.978;2022-08-20T01:43:07;4.70;;;3.20;;
39524;SDS011;25203;50.754;6.978;2022-08-20T01:45:08;4.68;;;3.30;;
39524;SDS011;25203;50.754;6.978;2022-08-20T01:49:21;4.53;;;3.60;;
39524;SDS011;25203;50.754;6.978;2022-08-20T01:51:27;6.88;;;3.83;;
39524;SDS011;25203;50.754;6.978;2022-08-20T01:53:33;5.80;;;4.15;;
39524;SDS011;25203;50.754;6.978;2022-08-20T01:55:38;8.40;;;5.32;;
39524;SDS011;25203;50.754;6.978;2022-08-20T01:57:39;11.35;;;6.35;;
39524;SDS011;25203;50.754;6.978;2022-08-20T01:59:40;8.45;;;5.80;;
39524;SDS011;25203;50.754;6.978;2022-08-20T02:01:41;7.55;;;6.10;;
39524;SDS011;25203;50.754;6.978;2022-08-20T02:03:42;12.25;;;7.25;;
39524;SDS011;25203;50.754;6.978;2022-08-20T02:05:43;9.05;;;6.05;;
39524;SDS011;25203;50.754;6.978;2022-08-20T02:07:44;10.25;;;6.57;;
39524;SDS011;25203;50.754;6.978;2022-08-20T02:09:45;8.90;;;6.53;;
39524;SDS011;25203;50.754;6.978;2022-08-20T02:11:46;11.40;;;7.63;;
39524;SDS011;25203;50.754;6.978;2022-08-20T02:13:47;7.68;;;6.47;;
39524;SDS011;25203;50.754;6.978;2022-08-20T02:15:51;8.15;;;5.85;;
39524;SDS011;25203;50.754;6.978;2022-08-20T02:17:52;7.22;;;6.38;;
39524;SDS011;25203;50.754;6.978;2022-08-20T02:20:15;12.13;;;7.07;;
39524;SDS011;25203;50.754;6.978;2022-08-20T02:22:31;9.02;;;6.40;;
39524;SDS011;25203;50.754;6.978;2022-08-20T02:24:48;10.25;;;7.38;;
39524;SDS011;25203;50.754;6.978;2022-08-20T02:26:49;8.75;;;6.70;;
39524;SDS011;25203;50.754;6.978;2022-08-20T02:28:50;8.25;;;6.32;;
39524;SDS011;25203;50.754;6.978;2022-08-20T02:30:52;9.80;;;6.60;;
39524;SDS011;25203;50.754;6.978;2022-08-20T02:32:58;5.78;;;5.18;;
39524;SDS011;25203;50.754;6.978;2022-08-20T02:35:04;8.57;;;5.88;;
39524;SDS011;25203;50.754;6.978;2022-08-20T02:37:07;11.20;;;6.82;;
39524;SDS011;25203;50.754;6.978;2022-08-20T02:39:09;8.70;;;5.72;;
39524;SDS011;25203;50.754;6.978;2022-08-20T02:41:12;9.98;;;6.93;;
39524;SDS011;25203;50.754;6.978;2022-08-20T02:43:14;12.30;;;7.43;;
39524;SDS011;25203;50.754;6.978;2022-08-20T02:45:17;10.27;;;6.38;;
39524;SDS011;25203;50.754;6.978;2022-08-20T02:47:18;10.80;;;7.15;;
39524;SDS011;25203;50.754;6.978;2022-08-20T02:49:19;13.60;;;7.25;;
39524;SDS011;25203;50.754;6.978;2022-08-20T02:51:21;9.25;;;6.15;;
39524;SDS011;25203;50.754;6.978;2022-08-20T02:53:22;7.28;;;5.40;;
39524;SDS011;25203;50.754;6.978;2022-08-20T02:55:24;6.50;;;5.20;;
39524;SDS011;25203;50.754;6.978;2022-08-20T02:57:25;7.18;;;4.78;;
39524;SDS011;25203;50.754;6.978;2022-08-20T02:59:27;6.68;;;5.13;;
39524;SDS011;25203;50.754;6.978;2022-08-20T03:01:28;6.18;;;5.32;;
39524;SDS011;25203;50.754;6.978;2022-08-20T03:03:30;6.60;;;5.18;;
39524;SDS011;25203;50.754;6.978;2022-08-20T03:05:30;6.10;;;5.22;;
39524;SDS011;25203;50.754;6.978;2022-08-20T03:07:31;8.23;;;5.65;;
39524;SDS011;25203;50.754;6.978;2022-08-20T03:09:38;14.82;;;7.25;;
39524;SDS011;25203;50.754;6.978;2022-08-20T03:11:40;9.35;;;6.93;;
39524;SDS011;25203;50.754;6.978;2022-08-20T03:13:40;11.63;;;6.95;;
39524;SDS011;25203;50.754;6.978;2022-08-20T03:15:45;11.13;;;6.05;;
39524;SDS011;25203;50.754;6.978;2022-08-20T03:17:48;13.73;;;8.15;;
39524;SDS011;25203;50.754;6.978;2022-08-20T03:19:48;9.65;;;7.30;;
39524;SDS011;25203;50.754;6.978;2022-08-20T03:21:49;9.00;;;6.20;;
39524;SDS011;25203;50.754;6.978;2022-08-20T03:23:50;9.90;;;5.75;;
39524;SDS011;25203;50.754;6.978;2022-08-20T03:25:50;7.72;;;5.70;;
39524;SDS011;25203;50.754;6.978;2022-08-20T03:27:51;11.50;;;7.35;;
39524;SDS011;25203;50.754;6.978;2022-08-20T03:29:52;17.25;;;9.15;;
39524;SDS011;25203;50.754;6.978;2022-08-20T03:31:53;16.50;;;9.90;;
39524;SDS011;25203;50.754;6.978;2022-08-20T03:33:53;15.82;;;8.82;;
39524;SDS011;25203;50.754;6.978;2022-08-20T03:35:54;13.77;;;9.98;;
39524;SDS011;25203;50.754;6.978;2022-08-20T03:37:55;15.35;;;8.35;;
39524;SDS011;25203;50.754;6.978;2022-08-20T03:39:56;11.10;;;7.93;;
39524;SDS011;25203;50.754;6.978;2022-08-20T03:41:57;8.88;;;6.53;;
39524;SDS011;25203;50.754;6.978;2022-08-20T03:43:58;13.52;;;7.75;;
39524;SDS011;25203;50.754;6.978;2022-08-20T03:45:58;27.13;;;14.77;;
39524;SDS011;25203;50.754;6.978;2022-08-20T03:47:59;20.83;;;12.00;;
39524;SDS011;25203;50.754;6.978;2022-08-20T03:50:01;20.25;;;11.32;;
39524;SDS011;25203;50.754;6.978;2022-08-20T03:52:04;13.73;;;9.52;;
39524;SDS011;25203;50.754;6.978;2022-08-20T03:54:05;13.00;;;9.10;;
39524;SDS011;25203;50.754;6.978;2022-08-20T03:56:05;23.10;;;11.43;;
39524;SDS011;25203;50.754;6.978;2022-08-20T03:58:07;19.25;;;10.45;;
39524;SDS011;25203;50.754;6.978;2022-08-20T04:00:08;17.80;;;9.95;;
39524;SDS011;25203;50.754;6.978;2022-08-20T04:02:12;14.63;;;8.95;;
39524;SDS011;25203;50.754;6.978;2022-08-20T04:04:13;18.48;;;10.80;;
39524;SDS011;25203;50.754;6.978;2022-08-20T04:06:14;17.90;;;9.85;;
39524;SDS011;25203;50.754;6.978;2022-08-20T04:08:16;14.95;;;10.15;;
39524;SDS011;25203;50.754;6.978;2022-08-20T04:10:19;24.85;;;11.75;;
39524;SDS011;25203;50.754;6.978;2022-08-20T04:12:20;19.17;;;10.43;;
39524;SDS011;25203;50.754;6.978;2022-08-20T04:14:22;19.52;;;11.40;;
39524;SDS011;25203;50.754;6.978;2022-08-20T04:16:22;20.83;;;12.15;;
39524;SDS011;25203;50.754;6.978;2022-08-20T04:18:24;31.17;;;16.27;;
39524;SDS011;25203;50.754;6.978;2022-08-20T04:20:26;33.03;;;16.58;;
39524;SDS011;25203;50.754;6.978;2022-08-20T04:22:26;26.17;;;15.95;;
39524;SDS011;25203;50.754;6.978;2022-08-20T04:24:27;34.15;;;17.15;;
39524;SDS011;25203;50.754;6.978;2022-08-20T04:26:28;39.75;;;19.00;;
39524;SDS011;25203;50.754;6.978;2022-08-20T04:28:29;46.65;;;21.08;;
39524;SDS011;25203;50.754;6.978;2022-08-20T04:30:29;43.00;;;20.65;;
39524;SDS011;25203;50.754;6.978;2022-08-20T04:32:31;50.50;;;22.05;;
39524;SDS011;25203;50.754;6.978;2022-08-20T04:34:35;54.13;;;22.42;;
39524;SDS011;25203;50.754;6.978;2022-08-20T04:36:36;58.95;;;24.33;;
39524;SDS011;25203;50.754;6.978;2022-08-20T04:38:37;45.85;;;20.90;;
39524;SDS011;25203;50.754;6.978;2022-08-20T04:40:37;39.97;;;20.65;;
39524;SDS011;25203;50.754;6.978;2022-08-20T04:42:56;56.80;;;24.95;;
39524;SDS011;25203;50.754;6.978;2022-08-20T04:44:57;38.13;;;19.33;;
39524;SDS011;25203;50.754;6.978;2022-08-20T04:46:57;24.60;;;14.57;;
39524;SDS011;25203;50.754;6.978;2022-08-20T04:48:58;38.72;;;19.38;;
39524;SDS011;25203;50.754;6.978;2022-08-20T04:51:00;42.60;;;20.05;;
39524;SDS011;25203;50.754;6.978;2022-08-20T04:53:06;45.45;;;22.50;;
39524;SDS011;25203;50.754;6.978;2022-08-20T04:55:08;36.50;;;18.05;;
39524;SDS011;25203;50.754;6.978;2022-08-20T04:57:09;30.23;;;16.05;;
39524;SDS011;25203;50.754;6.978;2022-08-20T04:59:09;37.75;;;19.80;;
39524;SDS011;25203;50.754;6.978;2022-08-20T05:01:10;41.80;;;19.77;;
39524;SDS011;25203;50.754;6.978;2022-08-20T05:03:11;37.35;;;18.17;;
39524;SDS011;25203;50.754;6.978;2022-08-20T05:05:11;34.67;;;16.35;;
39524;SDS011;25203;50.754;6.978;2022-08-20T05:07:14;69.30;;;25.85;;
39524;SDS011;25203;50.754;6.978;2022-08-20T05:09:16;60.15;;;25.27;;
39524;SDS011;25203;50.754;6.978;2022-08-20T05:11:17;58.08;;;24.75;;
39524;SDS011;25203;50.754;6.978;2022-08-20T05:13:20;47.55;;;24.42;;
39524;SDS011;25203;50.754;6.978;2022-08-20T05:15:20;50.17;;;24.30;;
39524;SDS011;25203;50.754;6.978;2022-08-20T05:17:23;40.97;;;22.88;;
39524;SDS011;25203;50.754;6.978;2022-08-20T05:19:24;47.60;;;26.75;;
39524;SDS011;25203;50.754;6.978;2022-08-20T05:21:25;51.90;;;24.92;;
39524;SDS011;25203;50.754;6.978;2022-08-20T05:23:25;53.60;;;25.40;;
39524;SDS011;25203;50.754;6.978;2022-08-20T05:25:26;48.95;;;26.50;;
39524;SDS011;25203;50.754;6.978;2022-08-20T05:27:31;44.35;;;24.80;;
39524;SDS011;25203;50.754;6.978;2022-08-20T05:29:31;51.13;;;26.17;;
39524;SDS011;25203;50.754;6.978;2022-08-20T05:31:32;44.25;;;24.70;;
39524;SDS011;25203;50.754;6.978;2022-08-20T05:33:34;45.50;;;24.60;;
39524;SDS011;25203;50.754;6.978;2022-08-20T05:35:36;49.40;;;25.20;;
39524;SDS011;25203;50.754;6.978;2022-08-20T05:37:38;45.40;;;22.98;;
39524;SDS011;25203;50.754;6.978;2022-08-20T05:39:40;40.00;;;23.63;;
39524;SDS011;25203;50.754;6.978;2022-08-20T05:41:41;35.40;;;23.58;;
39524;SDS011;25203;50.754;6.978;2022-08-20T05:43:41;35.58;;;22.95;;
39524;SDS011;25203;50.754;6.978;2022-08-20T05:45:42;37.75;;;22.95;;
39524;SDS011;25203;50.754;6.978;2022-08-20T05:47:44;35.38;;;22.63;;
39524;SDS011;25203;50.754;6.978;2022-08-20T05:49:45;37.63;;;22.65;;
39524;SDS011;25203;50.754;6.978;2022-08-20T05:51:46;33.45;;;22.58;;
39524;SDS011;25203;50.754;6.978;2022-08-20T05:53:48;39.03;;;22.58;;
39524;SDS011;25203;50.754;6.978;2022-08-20T05:55:49;37.42;;;23.58;;
39524;SDS011;25203;50.754;6.978;2022-08-20T05:57:49;39.28;;;22.90;;
39524;SDS011;25203;50.754;6.978;2022-08-20T06:00:00;31.48;;;21.90;;
39524;SDS011;25203;50.754;6.978;2022-08-20T06:02:01;37.58;;;21.42;;
39524;SDS011;25203;50.754;6.978;2022-08-20T06:04:22;32.63;;;21.70;;
39524;SDS011;25203;50.754;6.978;2022-08-20T06:06:27;33.10;;;21.33;;
39524;SDS011;25203;50.754;6.978;2022-08-20T06:08:27;34.22;;;22.50;;
39524;SDS011;25203;50.754;6.978;2022-08-20T06:10:28;30.77;;;21.27;;
39524;SDS011;25203;50.754;6.978;2022-08-20T06:12:29;33.78;;;22.70;;
39524;SDS011;25203;50.754;6.978;2022-08-20T06:14:30;34.35;;;22.67;;
39524;SDS011;25203;50.754;6.978;2022-08-20T06:16:31;36.47;;;22.63;;
39524;SDS011;25203;50.754;6.978;2022-08-20T06:18:32;36.80;;;23.73;;
39524;SDS011;25203;50.754;6.978;2022-08-20T06:20:33;35.65;;;23.77;;
39524;SDS011;25203;50.754;6.978;2022-08-20T06:22:36;30.88;;;23.80;;
39524;SDS011;25203;50.754;6.978;2022-08-20T06:24:37;36.53;;;24.40;;
39524;SDS011;25203;50.754;6.978;2022-08-20T06:26:37;34.28;;;25.05;;
39524;SDS011;25203;50.754;6.978;2022-08-20T06:28:38;33.47;;;22.77;;
39524;SDS011;25203;50.754;6.978;2022-08-20T06:30:39;26.92;;;21.20;;
39524;SDS011;25203;50.754;6.978;2022-08-20T06:32:39;33.35;;;22.60;;
39524;SDS011;25203;50.754;6.978;2022-08-20T06:34:40;27.52;;;21.58;;
39524;SDS011;25203;50.754;6.978;2022-08-20T06:36:40;33.40;;;22.58;;
39524;SDS011;25203;50.754;6.978;2022-08-20T06:38:41;36.30;;;23.55;;
39524;SDS011;25203;50.754;6.978;2022-08-20T06:40:42;30.33;;;21.60;;
39524;SDS011;25203;50.754;6.978;2022-08-20T06:42:43;28.85;;;22.20;;
39524;SDS011;25203;50.754;6.978;2022-08-20T06:44:44;26.42;;;20.33;;
39524;SDS011;25203;50.754;6.978;2022-08-20T06:46:49;30.92;;;21.17;;
39524;SDS011;25203;50.754;6.978;2022-08-20T06:48:49;26.33;;;20.77;;
39524;SDS011;25203;50.754;6.978;2022-08-20T06:50:50;26.67;;;20.15;;
39524;SDS011;25203;50.754;6.978;2022-08-20T06:52:52;24.85;;;19.73;;
39524;SDS011;25203;50.754;6.978;2022-08-20T06:54:52;22.20;;;18.17;;
39524;SDS011;25203;50.754;6.978;2022-08-20T06:56:53;21.40;;;16.35;;
39524;SDS011;25203;50.754;6.978;2022-08-20T06:58:54;19.70;;;15.55;;
39524;SDS011;25203;50.754;6.978;2022-08-20T07:00:54;18.63;;;13.65;;
39524;SDS011;25203;50.754;6.978;2022-08-20T07:02:55;16.52;;;13.27;;
39524;SDS011;25203;50.754;6.978;2022-08-20T07:04:56;13.18;;;11.85;;
39524;SDS011;25203;50.754;6.978;2022-08-20T07:06:57;13.93;;;11.43;;
39524;SDS011;25203;50.754;6.978;2022-08-20T07:08:58;13.90;;;11.02;;
39524;SDS011;25203;50.754;6.978;2022-08-20T07:10:59;15.32;;;11.52;;
39524;SDS011;25203;50.754;6.978;2022-08-20T07:13:00;12.82;;;10.63;;
39524;SDS011;25203;50.754;6.978;2022-08-20T07:15:04;11.35;;;10.20;;
39524;SDS011;25203;50.754;6.978;2022-08-20T07:17:06;11.05;;;9.18;;
39524;SDS011;25203;50.754;6.978;2022-08-20T07:19:06;12.75;;;10.40;;
39524;SDS011;25203;50.754;6.978;2022-08-20T07:21:07;9.63;;;8.70;;
39524;SDS011;25203;50.754;6.978;2022-08-20T07:23:08;10.35;;;9.35;;
39524;SDS011;25203;50.754;6.978;2022-08-20T07:25:11;11.50;;;10.30;;
39524;SDS011;25203;50.754;6.978;2022-08-20T07:27:13;10.82;;;9.73;;
39524;SDS011;25203;50.754;6.978;2022-08-20T07:29:14;11.18;;;10.02;;
39524;SDS011;25203;50.754;6.978;2022-08-20T07:31:15;11.07;;;9.25;;
39524;SDS011;25203;50.754;6.978;2022-08-20T07:33:35;10.38;;;9.35;;
39524;SDS011;25203;50.754;6.978;2022-08-20T07:35:39;10.25;;;9.25;;
39524;SDS011;25203;50.754;6.978;2022-08-20T07:37:42;10.48;;;8.60;;
39524;SDS011;25203;50.754;6.978;2022-08-20T07:39:47;14.73;;;9.55;;
39524;SDS011;25203;50.754;6.978;2022-08-20T07:41:48;13.25;;;9.30;;
39524;SDS011;25203;50.754;6.978;2022-08-20T07:44:01;11.27;;;10.10;;
39524;SDS011;25203;50.754;6.978;2022-08-20T07:46:04;10.07;;;9.05;;
39524;SDS011;25203;50.754;6.978;2022-08-20T07:48:09;9.15;;;7.43;;
39524;SDS011;25203;50.754;6.978;2022-08-20T07:50:13;9.93;;;8.70;;
39524;SDS011;25203;50.754;6.978;2022-08-20T07:52:16;11.45;;;9.82;;
39524;SDS011;25203;50.754;6.978;2022-08-20T07:54:16;12.80;;;11.50;;
39524;SDS011;25203;50.754;6.978;2022-08-20T07:56:18;14.02;;;12.50;;
39524;SDS011;25203;50.754;6.978;2022-08-20T07:58:20;12.43;;;11.23;;
39524;SDS011;25203;50.754;6.978;2022-08-20T08:00:24;13.73;;;12.32;;
39524;SDS011;25203;50.754;6.978;2022-08-20T08:02:25;12.52;;;11.27;;
39524;SDS011;25203;50.754;6.978;2022-08-20T08:04:26;12.90;;;11.63;;
39524;SDS011;25203;50.754;6.978;2022-08-20T08:06:27;11.18;;;9.95;;
39524;SDS011;25203;50.754;6.978;2022-08-20T08:08:29;11.88;;;10.77;;
39524;SDS011;25203;50.754;6.978;2022-08-20T08:10:32;11.13;;;10.13;;
39524;SDS011;25203;50.754;6.978;2022-08-20T08:12:39;9.60;;;8.70;;
39524;SDS011;25203;50.754;6.978;2022-08-20T08:14:44;9.20;;;7.45;;
39524;SDS011;25203;50.754;6.978;2022-08-20T08:16:46;8.13;;;7.05;;
39524;SDS011;25203;50.754;6.978;2022-08-20T08:18:49;8.55;;;7.25;;
39524;SDS011;25203;50.754;6.978;2022-08-20T08:20:55;7.32;;;6.72;;
39524;SDS011;25203;50.754;6.978;2022-08-20T08:22:56;7.85;;;6.97;;
39524;SDS011;25203;50.754;6.978;2022-08-20T08:24:57;7.85;;;6.95;;
39524;SDS011;25203;50.754;6.978;2022-08-20T08:27:01;7.75;;;7.05;;
39524;SDS011;25203;50.754;6.978;2022-08-20T08:29:02;8.52;;;7.65;;
39524;SDS011;25203;50.754;6.978;2022-08-20T08:31:06;8.43;;;7.72;;
39524;SDS011;25203;50.754;6.978;2022-08-20T08:33:07;8.75;;;7.95;;
39524;SDS011;25203;50.754;6.978;2022-08-20T08:35:27;8.98;;;8.07;;
39524;SDS011;25203;50.754;6.978;2022-08-20T08:37:30;8.10;;;7.40;;
39524;SDS011;25203;50.754;6.978;2022-08-20T08:39:31;8.63;;;7.93;;
39524;SDS011;25203;50.754;6.978;2022-08-20T08:41:34;8.75;;;7.95;;
39524;SDS011;25203;50.754;6.978;2022-08-20T08:43:38;7.90;;;7.15;;
39524;SDS011;25203;50.754;6.978;2022-08-20T08:45:41;8.73;;;7.88;;
39524;SDS011;25203;50.754;6.978;2022-08-20T08:47:44;8.85;;;7.90;;
39524;SDS011;25203;50.754;6.978;2022-08-20T08:49:45;7.32;;;6.75;;
39524;SDS011;25203;50.754;6.978;2022-08-20T08:51:47;13.20;;;7.57;;
39524;SDS011;25203;50.754;6.978;2022-08-20T08:53:54;7.60;;;6.95;;
39524;SDS011;25203;50.754;6.978;2022-08-20T08:55:56;8.13;;;7.32;;
39524;SDS011;25203;50.754;6.978;2022-08-20T08:57:58;7.47;;;6.75;;
39524;SDS011;25203;50.754;6.978;2022-08-20T09:00:03;10.30;;;6.88;;
39524;SDS011;25203;50.754;6.978;2022-08-20T09:02:11;9.88;;;6.97;;
39524;SDS011;25203;50.754;6.978;2022-08-20T09:04:19;7.53;;;6.22;;
39524;SDS011;25203;50.754;6.978;2022-08-20T09:06:22;7.35;;;6.70;;
39524;SDS011;25203;50.754;6.978;2022-08-20T09:08:25;6.28;;;5.78;;
39524;SDS011;25203;50.754;6.978;2022-08-20T09:10:30;8.13;;;7.32;;
39524;SDS011;25203;50.754;6.978;2022-08-20T09:12:30;8.63;;;6.85;;
39524;SDS011;25203;50.754;6.978;2022-08-20T09:14:32;7.35;;;6.07;;
39524;SDS011;25203;50.754;6.978;2022-08-20T09:16:32;10.10;;;7.18;;
39524;SDS011;25203;50.754;6.978;2022-08-20T09:18:33;8.52;;;6.22;;
39524;SDS011;25203;50.754;6.978;2022-08-20T09:20:34;7.70;;;6.60;;
39524;SDS011;25203;50.754;6.978;2022-08-20T09:22:34;6.47;;;5.88;;
39524;SDS011;25203;50.754;6.978;2022-08-20T09:24:35;9.95;;;6.70;;
39524;SDS011;25203;50.754;6.978;2022-08-20T09:26:36;7.88;;;7.07;;
39524;SDS011;25203;50.754;6.978;2022-08-20T09:28:37;9.40;;;6.88;;
39524;SDS011;25203;50.754;6.978;2022-08-20T09:30:37;9.65;;;7.55;;
39524;SDS011;25203;50.754;6.978;2022-08-20T09:32:38;8.60;;;6.82;;
39524;SDS011;25203;50.754;6.978;2022-08-20T09:34:41;8.10;;;7.40;;
39524;SDS011;25203;50.754;6.978;2022-08-20T09:36:43;8.50;;;7.55;;
39524;SDS011;25203;50.754;6.978;2022-08-20T09:38:44;9.82;;;7.57;;
39524;SDS011;25203;50.754;6.978;2022-08-20T09:40:44;5.95;;;5.45;;
39524;SDS011;25203;50.754;6.978;2022-08-20T09:42:45;7.72;;;5.55;;
39524;SDS011;25203;50.754;6.978;2022-08-20T09:44:46;7.53;;;4.93;;
39524;SDS011;25203;50.754;6.978;2022-08-20T09:46:47;5.72;;;4.22;;
39524;SDS011;25203;50.754;6.978;2022-08-20T09:48:47;4.68;;;3.83;;
39524;SDS011;25203;50.754;6.978;2022-08-20T09:50:48;5.57;;;4.63;;
39524;SDS011;25203;50.754;6.978;2022-08-20T09:52:49;5.22;;;4.65;;
39524;SDS011;25203;50.754;6.978;2022-08-20T09:54:52;5.10;;;4.57;;
39524;SDS011;25203;50.754;6.978;2022-08-20T09:57:01;5.38;;;4.90;;
39524;SDS011;25203;50.754;6.978;2022-08-20T09:59:04;5.50;;;4.93;;
39524;SDS011;25203;50.754;6.978;2022-08-20T10:01:11;6.63;;;5.25;;
39524;SDS011;25203;50.754;6.978;2022-08-20T10:03:14;6.93;;;4.93;;
39524;SDS011;25203;50.754;6.978;2022-08-20T10:05:16;4.32;;;3.38;;
39524;SDS011;25203;50.754;6.978;2022-08-20T10:07:17;6.97;;;5.35;;
39524;SDS011;25203;50.754;6.978;2022-08-20T10:09:17;6.78;;;5.05;;
39524;SDS011;25203;50.754;6.978;2022-08-20T10:11:18;7.93;;;5.63;;
39524;SDS011;25203;50.754;6.978;2022-08-20T10:13:18;6.78;;;5.38;;
39524;SDS011;25203;50.754;6.978;2022-08-20T10:15:19;6.43;;;5.18;;
39524;SDS011;25203;50.754;6.978;2022-08-20T10:17:20;5.20;;;4.65;;
39524;SDS011;25203;50.754;6.978;2022-08-20T10:19:20;7.93;;;4.13;;
39524;SDS011;25203;50.754;6.978;2022-08-20T10:21:21;6.50;;;4.68;;
39524;SDS011;25203;50.754;6.978;2022-08-20T10:23:22;5.35;;;4.57;;
39524;SDS011;25203;50.754;6.978;2022-08-20T10:25:22;6.47;;;5.00;;
39524;SDS011;25203;50.754;6.978;2022-08-20T10:27:23;6.13;;;4.10;;
39524;SDS011;25203;50.754;6.978;2022-08-20T10:29:24;8.10;;;3.85;;
39524;SDS011;25203;50.754;6.978;2022-08-20T10:31:26;5.13;;;3.78;;
39524;SDS011;25203;50.754;6.978;2022-08-20T10:33:27;6.30;;;2.60;;
39524;SDS011;25203;50.754;6.978;2022-08-20T10:35:28;5.82;;;3.50;;
39524;SDS011;25203;50.754;6.978;2022-08-20T10:37:29;5.68;;;3.30;;
39524;SDS011;25203;50.754;6.978;2022-08-20T10:39:29;6.22;;;3.42;;
39524;SDS011;25203;50.754;6.978;2022-08-20T10:41:30;4.80;;;2.95;;
39524;SDS011;25203;50.754;6.978;2022-08-20T10:43:30;6.38;;;3.38;;
39524;SDS011;25203;50.754;6.978;2022-08-20T10:45:31;6.22;;;3.58;;
39524;SDS011;25203;50.754;6.978;2022-08-20T10:47:32;8.32;;;3.85;;
39524;SDS011;25203;50.754;6.978;2022-08-20T10:49:33;6.88;;;4.43;;
39524;SDS011;25203;50.754;6.978;2022-08-20T10:51:33;6.00;;;3.40;;
39524;SDS011;25203;50.754;6.978;2022-08-20T10:53:34;5.13;;;3.30;;
39524;SDS011;25203;50.754;6.978;2022-08-20T10:55:35;6.90;;;3.47;;
39524;SDS011;25203;50.754;6.978;2022-08-20T10:57:36;6.22;;;3.72;;
39524;SDS011;25203;50.754;6.978;2022-08-20T10:59:40;8.00;;;3.42;;
39524;SDS011;25203;50.754;6.978;2022-08-20T11:01:43;9.10;;;3.20;;
39524;SDS011;25203;50.754;6.978;2022-08-20T11:03:43;7.25;;;3.30;;
39524;SDS011;25203;50.754;6.978;2022-08-20T11:05:44;5.50;;;3.05;;
39524;SDS011;25203;50.754;6.978;2022-08-20T11:07:45;7.22;;;3.17;;
39524;SDS011;25203;50.754;6.978;2022-08-20T11:09:47;6.38;;;3.00;;
39524;SDS011;25203;50.754;6.978;2022-08-20T11:11:47;7.15;;;3.90;;
39524;SDS011;25203;50.754;6.978;2022-08-20T11:13:48;5.53;;;3.13;;
39524;SDS011;25203;50.754;6.978;2022-08-20T11:15:49;4.80;;;3.53;;
39524;SDS011;25203;50.754;6.978;2022-08-20T11:17:50;4.85;;;3.58;;
39524;SDS011;25203;50.754;6.978;2022-08-20T11:19:51;6.90;;;2.92;;
39524;SDS011;25203;50.754;6.978;2022-08-20T11:21:52;6.90;;;2.63;;
39524;SDS011;25203;50.754;6.978;2022-08-20T11:23:53;5.88;;;2.47;;
39524;SDS011;25203;50.754;6.978;2022-08-20T11:25:53;6.43;;;2.88;;
39524;SDS011;25203;50.754;6.978;2022-08-20T11:27:55;9.55;;;2.75;;
39524;SDS011;25203;50.754;6.978;2022-08-20T11:29:56;7.18;;;2.80;;
39524;SDS011;25203;50.754;6.978;2022-08-20T11:31:57;9.27;;;3.50;;
39524;SDS011;25203;50.754;6.978;2022-08-20T11:33:58;5.35;;;2.72;;
39524;SDS011;25203;50.754;6.978;2022-08-20T11:35:58;5.82;;;3.20;;
39524;SDS011;25203;50.754;6.978;2022-08-20T11:37:59;5.78;;;3.20;;
39524;SDS011;25203;50.754;6.978;2022-08-20T11:40:00;6.45;;;3.10;;
39524;SDS011;25203;50.754;6.978;2022-08-20T11:42:02;6.30;;;2.97;;
39524;SDS011;25203;50.754;6.978;2022-08-20T11:44:02;5.60;;;3.25;;
39524;SDS011;25203;50.754;6.978;2022-08-20T11:46:03;10.68;;;3.33;;
39524;SDS011;25203;50.754;6.978;2022-08-20T11:48:04;5.60;;;3.50;;
39524;SDS011;25203;50.754;6.978;2022-08-20T11:50:06;5.43;;;3.05;;
39524;SDS011;25203;50.754;6.978;2022-08-20T11:52:13;7.53;;;3.53;;
39524;SDS011;25203;50.754;6.978;2022-08-20T11:54:13;6.60;;;3.08;;
39524;SDS011;25203;50.754;6.978;2022-08-20T11:56:14;5.88;;;3.03;;
39524;SDS011;25203;50.754;6.978;2022-08-20T11:58:15;6.90;;;3.00;;
39524;SDS011;25203;50.754;6.978;2022-08-20T12:00:18;5.32;;;3.45;;
39524;SDS011;25203;50.754;6.978;2022-08-20T12:02:20;5.10;;;2.55;;
39524;SDS011;25203;50.754;6.978;2022-08-20T12:04:21;7.93;;;3.25;;
39524;SDS011;25203;50.754;6.978;2022-08-20T12:06:22;7.35;;;3.63;;
39524;SDS011;25203;50.754;6.978;2022-08-20T12:08:22;8.30;;;3.58;;
39524;SDS011;25203;50.754;6.978;2022-08-20T12:10:23;7.60;;;3.38;;
39524;SDS011;25203;50.754;6.978;2022-08-20T12:12:25;6.88;;;3.33;;
39524;SDS011;25203;50.754;6.978;2022-08-20T12:14:26;6.45;;;3.00;;
39524;SDS011;25203;50.754;6.978;2022-08-20T12:16:26;5.25;;;2.67;;
39524;SDS011;25203;50.754;6.978;2022-08-20T12:18:27;6.30;;;3.45;;
39524;SDS011;25203;50.754;6.978;2022-08-20T12:20:28;7.18;;;3.33;;
39524;SDS011;25203;50.754;6.978;2022-08-20T12:22:28;4.80;;;3.05;;